Time;durP1;ratioP1;P1;durP2;ratioP2;P2;SDS_P1;SDS_P2;PMS_P1;PMS_P2;Temp;Humidity;BMP_temperature;BMP_pressure;BME280_temperature;BME280_humidity;BME280_pressure;Samples;Min_cycle;Max_cycle;Signal;HPM_P1;HPM_P2
2023/03/28 00:00:15;;;;;;;0.10;0.10;;;;;;;;;;1745737;28;20630;-59
2023/03/28 00:01:08;;;;;;;0.00;0.00;;;;;;;;;;1753186;28;20211;-58
2023/03/28 00:01:59;;;;;;;0.10;0.10;;;;;;;;;;1749486;28;20206;-59
2023/03/28 00:02:51;;;;;;;0.10;0.10;;;;;;;;;;1747475;28;20241;-58
2023/03/28 00:03:43;;;;;;;0.00;0.00;;;;;;;;;;1747995;28;20564;-58
2023/03/28 00:04:36;;;;;;;0.00;0.00;;;;;;;;;;1746479;28;20214;-59
2023/03/28 00:05:28;;;;;;;0.00;0.00;;;;;;;;;;1744999;28;20581;-58
2023/03/28 00:06:20;;;;;;;0.20;0.20;;;;;;;;;;1750756;28;20206;-59
2023/03/28 00:07:11;;;;;;;0.00;0.00;;;;;;;;;;1748239;28;20597;-58
2023/03/28 00:08:04;;;;;;;0.10;0.10;;;;;;;;;;1748616;28;20614;-59
2023/03/28 00:08:55;;;;;;;0.10;0.10;;;;;;;;;;1746659;28;20237;-59
2023/03/28 00:09:49;;;;;;;0.00;0.00;;;;;;;;;;1745165;28;20242;-59
2023/03/28 00:10:41;;;;;;;0.13;0.13;;;;;;;;;;1741984;28;20239;-59
2023/03/28 00:11:33;;;;;;;0.20;0.20;;;;;;;;;;1752184;28;20244;-58
2023/03/28 00:12:24;;;;;;;0.00;0.00;;;;;;;;;;1749942;28;20259;-59
2023/03/28 00:13:18;;;;;;;0.10;0.10;;;;;;;;;;1748392;28;20226;-59
2023/03/28 00:14:09;;;;;;;0.10;0.10;;;;;;;;;;1749960;28;20301;-58
2023/03/28 00:15:03;;;;;;;0.20;0.20;;;;;;;;;;1749756;28;20199;-59
2023/03/28 00:15:54;;;;;;;0.00;0.00;;;;;;;;;;1745365;28;20287;-58
2023/03/28 00:16:46;;;;;;;0.10;0.10;;;;;;;;;;1749842;28;20280;-59
2023/03/28 00:17:40;;;;;;;0.00;0.00;;;;;;;;;;1746883;28;20230;-59
2023/03/28 00:18:31;;;;;;;0.10;0.10;;;;;;;;;;1746289;28;20203;-59
2023/03/28 00:19:24;;;;;;;0.00;0.00;;;;;;;;;;1751312;28;20198;-59
2023/03/28 00:20:16;;;;;;;0.13;0.13;;;;;;;;;;1747080;28;20222;-60
2023/03/28 00:21:18;;;;;;;0.00;0.00;;;;;;;;;;1749074;28;20202;-59
2023/03/28 00:22:10;;;;;;;0.20;0.20;;;;;;;;;;1748072;28;20210;-59
2023/03/28 00:23:02;;;;;;;0.00;0.00;;;;;;;;;;1748715;28;20822;-58
2023/03/28 00:23:54;;;;;;;0.15;0.15;;;;;;;;;;1747414;28;20203;-58
2023/03/28 00:24:47;;;;;;;0.00;0.00;;;;;;;;;;1752032;28;20724;-59
2023/03/28 00:25:40;;;;;;;0.00;0.00;;;;;;;;;;1744895;28;20680;-58
2023/03/28 00:26:34;;;;;;;0.38;0.38;;;;;;;;;;1746026;28;20264;-59
2023/03/28 00:27:25;;;;;;;0.13;0.13;;;;;;;;;;1746403;28;20215;-57
2023/03/28 00:28:17;;;;;;;0.30;0.30;;;;;;;;;;1747874;28;20733;-58
2023/03/28 00:29:14;;;;;;;0.15;0.15;;;;;;;;;;1749587;28;20629;-58
2023/03/28 00:30:07;;;;;;;0.10;0.10;;;;;;;;;;1749547;28;20189;-58
2023/03/28 00:31:01;;;;;;;0.10;0.10;;;;;;;;;;1749414;28;20229;-59
2023/03/28 00:31:53;;;;;;;0.10;0.10;;;;;;;;;;1749430;28;20218;-58
2023/03/28 00:32:44;;;;;;;0.00;0.00;;;;;;;;;;1747858;28;20702;-59
2023/03/28 00:33:36;;;;;;;0.10;0.10;;;;;;;;;;1746079;28;20617;-58
2023/03/28 00:34:29;;;;;;;0.17;0.17;;;;;;;;;;1745786;28;20207;-58
2023/03/28 00:35:21;;;;;;;0.20;0.20;;;;;;;;;;1744560;28;20235;-59
2023/03/28 00:36:13;;;;;;;0.17;0.17;;;;;;;;;;1746014;28;20240;-58
2023/03/28 00:37:05;;;;;;;0.20;0.20;;;;;;;;;;1746181;28;20207;-59
2023/03/28 00:37:57;;;;;;;0.10;0.10;;;;;;;;;;1747605;28;20264;-59
2023/03/28 00:38:50;;;;;;;0.20;0.20;;;;;;;;;;1746396;28;20545;-58
2023/03/28 00:39:42;;;;;;;0.00;0.00;;;;;;;;;;1746482;28;20559;-57
2023/03/28 00:40:37;;;;;;;0.40;0.40;;;;;;;;;;1745188;28;20242;-59
2023/03/28 00:41:30;;;;;;;0.20;0.20;;;;;;;;;;1751385;28;20211;-59
2023/03/28 00:42:23;;;;;;;0.25;0.25;;;;;;;;;;1750354;28;20639;-58
2023/03/28 00:43:14;;;;;;;0.15;0.15;;;;;;;;;;1746673;28;20723;-59
2023/03/28 00:44:21;;;;;;;0.10;0.10;;;;;;;;;;1748836;28;20964;-58
2023/03/28 00:45:12;;;;;;;0.10;0.10;;;;;;;;;;1747025;28;20731;-59
2023/03/28 00:46:04;;;;;;;0.10;0.10;;;;;;;;;;1747222;28;20222;-59
2023/03/28 00:46:56;;;;;;;0.10;0.10;;;;;;;;;;1748120;28;20732;-59
2023/03/28 00:47:50;;;;;;;0.20;0.20;;;;;;;;;;1746241;28;20209;-56
2023/03/28 00:48:46;;;;;;;0.22;0.22;;;;;;;;;;1747286;28;20214;-59
2023/03/28 00:49:39;;;;;;;0.35;0.35;;;;;;;;;;1752655;28;20193;-58
2023/03/28 00:50:31;;;;;;;0.10;0.10;;;;;;;;;;1743074;28;20266;-58
2023/03/28 00:51:25;;;;;;;0.20;0.20;;;;;;;;;;1748481;28;20287;-59
2023/03/28 00:52:17;;;;;;;0.40;0.40;;;;;;;;;;1747824;28;20213;-59
2023/03/28 00:53:12;;;;;;;0.10;0.10;;;;;;;;;;1748714;28;20202;-58
2023/03/28 00:54:05;;;;;;;0.30;0.30;;;;;;;;;;1747042;28;20293;-59
2023/03/28 00:54:57;;;;;;;0.20;0.20;;;;;;;;;;1746943;28;20268;-58
2023/03/28 00:55:49;;;;;;;0.28;0.28;;;;;;;;;;1744435;28;20238;-59
2023/03/28 00:56:42;;;;;;;0.10;0.10;;;;;;;;;;1750249;28;20252;-59
2023/03/28 00:57:37;;;;;;;0.10;0.10;;;;;;;;;;1748182;28;20677;-59
2023/03/28 00:58:31;;;;;;;0.13;0.13;;;;;;;;;;1748262;28;20548;-58
2023/03/28 00:59:24;;;;;;;0.10;0.10;;;;;;;;;;1746151;28;20626;-59
2023/03/28 01:00:17;;;;;;;0.00;0.00;;;;;;;;;;1745038;28;20242;-59
2023/03/28 01:01:09;;;;;;;0.20;0.20;;;;;;;;;;1748673;28;20685;-58
2023/03/28 01:02:01;;;;;;;0.00;0.00;;;;;;;;;;1752262;28;20208;-59
2023/03/28 01:02:54;;;;;;;0.10;0.10;;;;;;;;;;1747247;28;20591;-59
2023/03/28 01:03:48;;;;;;;0.40;0.40;;;;;;;;;;1746308;28;20210;-58
2023/03/28 01:04:45;;;;;;;0.13;0.13;;;;;;;;;;1746355;28;20705;-58
2023/03/28 01:05:37;;;;;;;0.10;0.10;;;;;;;;;;1745887;28;20591;-57
2023/03/28 01:06:28;;;;;;;0.20;0.20;;;;;;;;;;1745830;28;21020;-59
2023/03/28 01:07:20;;;;;;;0.10;0.10;;;;;;;;;;1747666;28;20203;-59
2023/03/28 01:08:14;;;;;;;0.10;0.10;;;;;;;;;;1748762;28;20208;-59
2023/03/28 01:09:06;;;;;;;0.10;0.10;;;;;;;;;;1749533;28;20289;-58
2023/03/28 01:09:58;;;;;;;0.00;0.00;;;;;;;;;;1750936;28;20209;-59
2023/03/28 01:10:50;;;;;;;0.00;0.00;;;;;;;;;;1744304;28;20700;-58
2023/03/28 01:11:42;;;;;;;0.40;0.40;;;;;;;;;;1750496;28;20289;-59
2023/03/28 01:12:33;;;;;;;0.10;0.10;;;;;;;;;;1747892;28;20215;-58
2023/03/28 01:13:26;;;;;;;0.05;0.05;;;;;;;;;;1751199;28;20198;-59
2023/03/28 01:14:21;;;;;;;0.20;0.20;;;;;;;;;;1753177;28;20237;-59
2023/03/28 01:15:12;;;;;;;0.00;0.00;;;;;;;;;;1747992;28;20210;-60
2023/03/28 01:16:04;;;;;;;0.10;0.10;;;;;;;;;;1745121;28;20230;-58
2023/03/28 01:16:56;;;;;;;0.00;0.00;;;;;;;;;;1750097;28;20218;-57
2023/03/28 01:17:49;;;;;;;0.17;0.17;;;;;;;;;;1747195;28;20297;-57
2023/03/28 01:18:40;;;;;;;0.00;0.00;;;;;;;;;;1745905;28;20722;-58
2023/03/28 01:19:42;;;;;;;0.20;0.20;;;;;;;;;;1752037;28;20263;-59
2023/03/28 01:20:50;;;;;;;0.10;0.10;;;;;;;;;;1743549;28;20235;-58
2023/03/28 01:21:55;;;;;;;0.20;0.20;;;;;;;;;;1745915;28;20203;-59
2023/03/28 01:23:07;;;;;;;0.20;0.20;;;;;;;;;;1751957;28;20202;-58
2023/03/28 01:24:23;;;;;;;0.15;0.15;;;;;;;;;;1752524;28;20198;-59
2023/03/28 01:25:23;;;;;;;0.30;0.30;;;;;;;;;;1747197;28;20202;-59
2023/03/28 01:26:27;;;;;;;0.22;0.22;;;;;;;;;;1749334;28;20221;-58
2023/03/28 01:27:21;;;;;;;0.20;0.20;;;;;;;;;;1746910;28;20207;-59
2023/03/28 01:28:19;;;;;;;0.20;0.20;;;;;;;;;;1749551;28;20728;-58
2023/03/28 01:29:43;;;;;;;0.10;0.10;;;;;;;;;;1752851;28;20296;-59
2023/03/28 01:30:50;;;;;;;0.10;0.10;;;;;;;;;;1749957;28;20690;-59
2023/03/28 01:31:49;;;;;;;0.15;0.15;;;;;;;;;;1746191;28;20750;-59
2023/03/28 01:32:56;;;;;;;0.10;0.10;;;;;;;;;;1751901;28;20213;-58
2023/03/28 01:34:07;;;;;;;0.20;0.20;;;;;;;;;;1745403;28;20236;-57
2023/03/28 01:35:32;;;;;;;0.20;0.20;;;;;;;;;;1745726;28;20193;-59
2023/03/28 01:36:41;;;;;;;0.20;0.20;;;;;;;;;;1712955;28;20905;-58
2023/03/28 01:37:38;;;;;;;0.10;0.10;;;;;;;;;;1720757;28;20693;-58
2023/03/28 01:38:34;;;;;;;0.00;0.00;;;;;;;;;;1715875;28;20286;-59
2023/03/28 01:39:31;;;;;;;0.25;0.25;;;;;;;;;;1717816;28;20223;-58
2023/03/28 01:40:26;;;;;;;0.10;0.10;;;;;;;;;;1716738;28;20241;-58
2023/03/28 01:41:21;;;;;;;0.28;0.28;;;;;;;;;;1720559;28;20229;-58
2023/03/28 01:42:19;;;;;;;0.10;0.10;;;;;;;;;;1729327;28;20203;-59
2023/03/28 01:43:17;;;;;;;0.10;0.10;;;;;;;;;;1746560;28;20914;-58
2023/03/28 01:44:10;;;;;;;0.10;0.10;;;;;;;;;;1751865;28;20254;-59
2023/03/28 01:45:07;;;;;;;0.30;0.30;;;;;;;;;;1750973;28;21230;-58
2023/03/28 01:46:00;;;;;;;0.10;0.10;;;;;;;;;;1738590;28;20377;-58
2023/03/28 01:46:56;;;;;;;0.10;0.10;;;;;;;;;;1751199;28;20555;-58
2023/03/28 01:47:50;;;;;;;0.40;0.40;;;;;;;;;;1747594;28;20613;-57
2023/03/28 01:48:47;;;;;;;0.13;0.13;;;;;;;;;;1746909;28;20202;-58
2023/03/28 01:49:41;;;;;;;0.35;0.35;;;;;;;;;;1746375;28;20191;-58
2023/03/28 01:50:36;;;;;;;0.20;0.20;;;;;;;;;;1744432;28;20781;-58
2023/03/28 01:51:34;;;;;;;0.10;0.10;;;;;;;;;;1745805;28;20218;-59
2023/03/28 01:52:32;;;;;;;0.20;0.20;;;;;;;;;;1749305;28;20697;-59
2023/03/28 01:53:28;;;;;;;0.10;0.10;;;;;;;;;;1749140;28;20271;-58
2023/03/28 01:54:28;;;;;;;0.10;0.10;;;;;;;;;;1751411;28;20210;-58
2023/03/28 01:55:22;;;;;;;0.10;0.10;;;;;;;;;;1745345;28;20207;-58
2023/03/28 01:56:21;;;;;;;0.35;0.35;;;;;;;;;;1745903;28;20206;-58
2023/03/28 01:57:14;;;;;;;0.10;0.10;;;;;;;;;;1747349;28;20690;-57
2023/03/28 01:58:11;;;;;;;0.20;0.20;;;;;;;;;;1745755;28;20203;-56
2023/03/28 01:59:06;;;;;;;0.10;0.10;;;;;;;;;;1747781;28;20286;-58
2023/03/28 02:00:01;;;;;;;0.10;0.10;;;;;;;;;;1751422;28;20190;-58
2023/03/28 02:00:55;;;;;;;0.47;0.47;;;;;;;;;;1744603;28;20779;-58
2023/03/28 02:01:50;;;;;;;0.13;0.13;;;;;;;;;;1745192;28;20272;-58
2023/03/28 02:02:48;;;;;;;0.05;0.05;;;;;;;;;;1746080;28;20479;-58
2023/03/28 02:03:41;;;;;;;0.00;0.00;;;;;;;;;;1747985;28;20203;-58
2023/03/28 02:04:34;;;;;;;0.10;0.10;;;;;;;;;;1749983;28;20267;-58
2023/03/28 02:05:27;;;;;;;0.00;0.00;;;;;;;;;;1743876;28;20656;-59
2023/03/28 02:06:20;;;;;;;0.10;0.10;;;;;;;;;;1746005;28;20203;-59
2023/03/28 02:07:12;;;;;;;0.30;0.30;;;;;;;;;;1746881;28;20198;-59
2023/03/28 02:08:07;;;;;;;0.32;0.32;;;;;;;;;;1747697;28;20506;-59
2023/03/28 02:09:00;;;;;;;0.30;0.30;;;;;;;;;;1747037;28;20207;-59
2023/03/28 02:09:52;;;;;;;0.22;0.22;;;;;;;;;;1751728;28;20209;-58
2023/03/28 02:10:44;;;;;;;0.10;0.10;;;;;;;;;;1747460;28;20668;-59
2023/03/28 02:11:36;;;;;;;0.10;0.10;;;;;;;;;;1748917;28;20214;-60
2023/03/28 02:12:30;;;;;;;0.10;0.10;;;;;;;;;;1747689;28;20206;-59
2023/03/28 02:13:25;;;;;;;0.10;0.10;;;;;;;;;;1747259;28;20210;-59
2023/03/28 02:14:19;;;;;;;0.00;0.00;;;;;;;;;;1749902;28;20222;-59
2023/03/28 02:15:13;;;;;;;0.10;0.10;;;;;;;;;;1747218;28;20617;-58
2023/03/28 02:16:06;;;;;;;0.08;0.08;;;;;;;;;;1745203;28;20237;-58
2023/03/28 02:16:59;;;;;;;0.20;0.20;;;;;;;;;;1745425;28;20210;-59
2023/03/28 02:17:55;;;;;;;0.10;0.10;;;;;;;;;;1746104;28;20206;-59
2023/03/28 02:18:49;;;;;;;0.00;0.00;;;;;;;;;;1746945;28;20199;-59
2023/03/28 02:19:41;;;;;;;0.10;0.10;;;;;;;;;;1746071;28;20464;-59
2023/03/28 02:20:35;;;;;;;0.17;0.17;;;;;;;;;;1744613;28;20234;-59
2023/03/28 02:21:30;;;;;;;0.10;0.10;;;;;;;;;;1749224;28;20863;-59
2023/03/28 02:22:22;;;;;;;0.10;0.10;;;;;;;;;;1750342;28;20215;-59
2023/03/28 02:23:17;;;;;;;0.13;0.13;;;;;;;;;;1749309;28;20302;-58
2023/03/28 02:24:11;;;;;;;0.10;0.10;;;;;;;;;;1748617;28;20206;-59
2023/03/28 02:25:03;;;;;;;0.20;0.20;;;;;;;;;;1750121;28;20207;-59
2023/03/28 02:25:55;;;;;;;0.05;0.05;;;;;;;;;;1744529;28;20233;-58
2023/03/28 02:26:46;;;;;;;0.10;0.10;;;;;;;;;;1752227;28;20230;-59
2023/03/28 02:27:39;;;;;;;0.20;0.20;;;;;;;;;;1745895;28;20213;-59
2023/03/28 02:28:30;;;;;;;0.10;0.10;;;;;;;;;;1750814;28;20221;-59
2023/03/28 02:29:22;;;;;;;0.15;0.15;;;;;;;;;;1748131;28;20207;-59
2023/03/28 02:30:14;;;;;;;0.32;0.32;;;;;;;;;;1745120;28;20271;-59
2023/03/28 02:31:07;;;;;;;0.25;0.25;;;;;;;;;;1744514;28;20771;-58
2023/03/28 02:31:58;;;;;;;0.00;0.00;;;;;;;;;;1746784;28;20790;-61
2023/03/28 02:32:50;;;;;;;0.30;0.30;;;;;;;;;;1751870;28;20692;-56
2023/03/28 02:33:42;;;;;;;0.10;0.10;;;;;;;;;;1745847;28;20271;-58
2023/03/28 02:34:34;;;;;;;0.30;0.30;;;;;;;;;;1746333;28;20579;-59
2023/03/28 02:35:27;;;;;;;0.00;0.00;;;;;;;;;;1743948;28;20199;-58
2023/03/28 02:36:28;;;;;;;0.20;0.20;;;;;;;;;;1749977;28;20255;-58
2023/03/28 02:37:26;;;;;;;0.10;0.10;;;;;;;;;;1747083;28;20224;-58
2023/03/28 02:38:24;;;;;;;0.10;0.10;;;;;;;;;;1749453;28;20202;-58
2023/03/28 02:39:24;;;;;;;0.05;0.05;;;;;;;;;;1754367;28;20210;-60
2023/03/28 02:40:27;;;;;;;0.20;0.20;;;;;;;;;;1748317;28;20509;-58
2023/03/28 02:41:23;;;;;;;0.10;0.10;;;;;;;;;;1746958;28;20251;-59
2023/03/28 02:42:24;;;;;;;0.10;0.10;;;;;;;;;;1748193;28;20235;-58
2023/03/28 02:43:34;;;;;;;0.20;0.20;;;;;;;;;;1750014;28;20275;-58
2023/03/28 02:44:35;;;;;;;0.40;0.40;;;;;;;;;;1748967;28;20643;-58
2023/03/28 02:45:45;;;;;;;0.20;0.20;;;;;;;;;;1747264;28;20237;-56
2023/03/28 02:46:42;;;;;;;0.10;0.10;;;;;;;;;;1753206;28;20238;-57
2023/03/28 02:47:35;;;;;;;0.20;0.20;;;;;;;;;;1749743;28;20218;-59
2023/03/28 02:48:33;;;;;;;0.00;0.00;;;;;;;;;;1751823;28;20206;-58
2023/03/28 02:49:27;;;;;;;0.10;0.10;;;;;;;;;;1749120;28;20207;-59
2023/03/28 02:50:24;;;;;;;0.10;0.10;;;;;;;;;;1746041;28;20230;-57
2023/03/28 02:51:22;;;;;;;0.15;0.15;;;;;;;;;;1750603;28;20674;-59
2023/03/28 02:52:22;;;;;;;0.20;0.20;;;;;;;;;;1752034;28;20198;-58
2023/03/28 02:53:16;;;;;;;0.20;0.20;;;;;;;;;;1752844;28;20320;-59
2023/03/28 02:54:20;;;;;;;0.20;0.20;;;;;;;;;;1754172;28;20202;-58
2023/03/28 02:55:16;;;;;;;0.30;0.30;;;;;;;;;;1749296;28;20211;-58
2023/03/28 02:56:11;;;;;;;0.32;0.32;;;;;;;;;;1748742;28;20230;-58
2023/03/28 02:57:05;;;;;;;0.10;0.10;;;;;;;;;;1749894;28;20622;-58
2023/03/28 02:58:00;;;;;;;0.20;0.20;;;;;;;;;;1747948;28;20211;-59
2023/03/28 02:58:54;;;;;;;0.10;0.10;;;;;;;;;;1752992;28;20341;-58
2023/03/28 02:59:51;;;;;;;0.17;0.17;;;;;;;;;;1747064;28;20679;-58
2023/03/28 03:00:42;;;;;;;0.20;0.20;;;;;;;;;;1750664;28;20241;-59
2023/03/28 03:01:35;;;;;;;0.10;0.10;;;;;;;;;;1753059;28;20220;-58
2023/03/28 03:02:27;;;;;;;0.08;0.08;;;;;;;;;;1752608;28;20215;-59
2023/03/28 03:03:20;;;;;;;0.10;0.10;;;;;;;;;;1751715;28;20206;-59
2023/03/28 03:04:12;;;;;;;0.10;0.10;;;;;;;;;;1750564;28;20344;-57
2023/03/28 03:05:04;;;;;;;0.20;0.20;;;;;;;;;;1747947;28;20210;-58
2023/03/28 03:05:56;;;;;;;0.10;0.10;;;;;;;;;;1745629;28;20814;-59
2023/03/28 03:06:49;;;;;;;0.10;0.10;;;;;;;;;;1750366;28;20226;-58
2023/03/28 03:07:41;;;;;;;0.20;0.20;;;;;;;;;;1747520;28;20326;-58
2023/03/28 03:08:33;;;;;;;0.10;0.10;;;;;;;;;;1748390;28;20274;-59
2023/03/28 03:09:26;;;;;;;0.00;0.00;;;;;;;;;;1751745;28;20342;-58
2023/03/28 03:10:20;;;;;;;0.30;0.30;;;;;;;;;;1748059;28;20207;-59
2023/03/28 03:11:11;;;;;;;0.20;0.20;;;;;;;;;;1749515;28;20591;-59
2023/03/28 03:12:03;;;;;;;0.10;0.10;;;;;;;;;;1749658;28;20288;-59
2023/03/28 03:12:54;;;;;;;0.10;0.10;;;;;;;;;;1747716;28;20283;-58
2023/03/28 03:13:46;;;;;;;0.17;0.17;;;;;;;;;;1747822;28;20618;-58
2023/03/28 03:14:37;;;;;;;0.10;0.10;;;;;;;;;;1753628;28;20214;-58
2023/03/28 03:15:30;;;;;;;0.17;0.17;;;;;;;;;;1747224;28;21913;-58
2023/03/28 03:16:22;;;;;;;0.00;0.00;;;;;;;;;;1753211;28;20225;-58
2023/03/28 03:17:14;;;;;;;0.17;0.17;;;;;;;;;;1748628;28;20202;-58
2023/03/28 03:18:05;;;;;;;0.20;0.20;;;;;;;;;;1747089;28;20601;-58
2023/03/28 03:18:57;;;;;;;0.20;0.20;;;;;;;;;;1752553;28;20209;-59
2023/03/28 03:19:48;;;;;;;0.10;0.10;;;;;;;;;;1753187;28;20296;-58
2023/03/28 03:20:44;;;;;;;0.20;0.20;;;;;;;;;;1750980;28;20237;-59
2023/03/28 03:21:35;;;;;;;0.10;0.10;;;;;;;;;;1753111;28;20242;-58
2023/03/28 03:22:27;;;;;;;0.10;0.10;;;;;;;;;;1750066;28;20213;-58
2023/03/28 03:23:19;;;;;;;0.10;0.10;;;;;;;;;;1750189;28;20624;-59
2023/03/28 03:24:11;;;;;;;0.15;0.15;;;;;;;;;;1753965;28;20509;-58
2023/03/28 03:25:05;;;;;;;0.00;0.00;;;;;;;;;;1752122;28;20206;-59
2023/03/28 03:25:57;;;;;;;0.00;0.00;;;;;;;;;;1751749;28;20292;-59
2023/03/28 03:26:48;;;;;;;0.30;0.30;;;;;;;;;;1753360;28;20606;-58
2023/03/28 03:27:40;;;;;;;0.10;0.10;;;;;;;;;;1752871;28;20259;-59
2023/03/28 03:28:31;;;;;;;0.10;0.10;;;;;;;;;;1747559;28;20731;-59
2023/03/28 03:29:23;;;;;;;0.30;0.30;;;;;;;;;;1746294;28;20203;-58
2023/03/28 03:30:14;;;;;;;0.10;0.10;;;;;;;;;;1746816;28;20346;-59
2023/03/28 03:31:06;;;;;;;0.10;0.10;;;;;;;;;;1751208;28;20273;-59
2023/03/28 03:31:57;;;;;;;0.17;0.17;;;;;;;;;;1748405;28;20214;-58
2023/03/28 03:32:49;;;;;;;0.00;0.00;;;;;;;;;;1747632;28;20213;-58
2023/03/28 03:33:41;;;;;;;0.20;0.20;;;;;;;;;;1747056;28;20207;-58
2023/03/28 03:34:35;;;;;;;0.13;0.13;;;;;;;;;;1748272;28;20792;-58
2023/03/28 03:35:28;;;;;;;0.20;0.20;;;;;;;;;;1745067;28;20569;-58
2023/03/28 03:36:19;;;;;;;0.13;0.13;;;;;;;;;;1750481;28;20600;-58
2023/03/28 03:37:11;;;;;;;0.30;0.30;;;;;;;;;;1750412;28;20206;-58
2023/03/28 03:38:03;;;;;;;0.10;0.10;;;;;;;;;;1748633;28;20263;-57
2023/03/28 03:38:55;;;;;;;0.20;0.20;;;;;;;;;;1753549;28;20756;-58
2023/03/28 03:39:46;;;;;;;0.00;0.00;;;;;;;;;;1753265;28;20206;-57
2023/03/28 03:40:40;;;;;;;0.17;0.17;;;;;;;;;;1750480;28;20229;-59
2023/03/28 03:41:31;;;;;;;0.20;0.20;;;;;;;;;;1752274;28;20666;-58
2023/03/28 03:42:22;;;;;;;0.10;0.10;;;;;;;;;;1748548;28;20309;-58
2023/03/28 03:43:14;;;;;;;0.20;0.20;;;;;;;;;;1749606;28;20301;-58
2023/03/28 03:44:06;;;;;;;0.28;0.28;;;;;;;;;;1751500;28;20642;-58
2023/03/28 03:44:57;;;;;;;0.20;0.20;;;;;;;;;;1746188;28;20671;-58
2023/03/28 03:45:49;;;;;;;0.30;0.30;;;;;;;;;;1748042;28;20580;-58
2023/03/28 03:46:40;;;;;;;0.22;0.22;;;;;;;;;;1746837;28;20233;-58
2023/03/28 03:47:32;;;;;;;0.20;0.20;;;;;;;;;;1748279;28;20202;-59
2023/03/28 03:48:24;;;;;;;0.10;0.10;;;;;;;;;;1750886;28;20235;-57
2023/03/28 03:49:16;;;;;;;0.17;0.17;;;;;;;;;;1752481;28;20206;-59
2023/03/28 03:50:08;;;;;;;0.20;0.20;;;;;;;;;;1750358;28;20203;-58
2023/03/28 03:51:00;;;;;;;0.10;0.10;;;;;;;;;;1747589;28;20997;-58
2023/03/28 03:51:51;;;;;;;0.10;0.10;;;;;;;;;;1749611;28;20268;-57
2023/03/28 03:52:43;;;;;;;0.10;0.10;;;;;;;;;;1748751;28;20203;-58
2023/03/28 03:53:34;;;;;;;0.15;0.15;;;;;;;;;;1746396;28;20650;-58
2023/03/28 03:54:26;;;;;;;0.10;0.10;;;;;;;;;;1751467;28;20204;-58
2023/03/28 03:55:19;;;;;;;0.13;0.13;;;;;;;;;;1748201;28;20232;-59
2023/03/28 03:56:13;;;;;;;0.20;0.20;;;;;;;;;;1752704;28;20233;-58
2023/03/28 03:57:04;;;;;;;0.00;0.00;;;;;;;;;;1750315;28;20235;-58
2023/03/28 03:57:56;;;;;;;0.10;0.10;;;;;;;;;;1752617;28;20639;-58
2023/03/28 03:58:47;;;;;;;0.10;0.10;;;;;;;;;;1747774;28;20496;-58
2023/03/28 03:59:39;;;;;;;0.17;0.17;;;;;;;;;;1746593;28;20210;-57
2023/03/28 04:00:30;;;;;;;0.10;0.10;;;;;;;;;;1748417;28;20318;-57
2023/03/28 04:01:24;;;;;;;0.25;0.25;;;;;;;;;;1753757;28;20271;-58
2023/03/28 04:02:15;;;;;;;0.17;0.17;;;;;;;;;;1748019;28;20279;-57
2023/03/28 04:03:07;;;;;;;0.10;0.10;;;;;;;;;;1748566;28;20202;-58
2023/03/28 04:03:58;;;;;;;0.00;0.00;;;;;;;;;;1746786;28;20620;-58
2023/03/28 04:04:52;;;;;;;0.10;0.10;;;;;;;;;;1750446;28;20281;-58
2023/03/28 04:05:43;;;;;;;0.00;0.00;;;;;;;;;;1749529;28;20347;-57
2023/03/28 04:06:37;;;;;;;0.10;0.10;;;;;;;;;;1752516;28;20222;-58
2023/03/28 04:07:28;;;;;;;0.10;0.10;;;;;;;;;;1752464;28;20206;-58
2023/03/28 04:08:20;;;;;;;0.20;0.20;;;;;;;;;;1752972;28;20202;-58
2023/03/28 04:09:11;;;;;;;0.10;0.10;;;;;;;;;;1753729;28;20667;-58
2023/03/28 04:10:03;;;;;;;0.20;0.20;;;;;;;;;;1751626;28;21413;-59
2023/03/28 04:10:54;;;;;;;0.10;0.10;;;;;;;;;;1747261;28;20246;-59
2023/03/28 04:11:47;;;;;;;0.10;0.10;;;;;;;;;;1750689;28;20194;-59
2023/03/28 04:12:38;;;;;;;0.10;0.10;;;;;;;;;;1747969;28;20617;-59
2023/03/28 04:13:30;;;;;;;0.10;0.10;;;;;;;;;;1748258;28;20215;-59
2023/03/28 04:14:21;;;;;;;0.15;0.15;;;;;;;;;;1750758;28;20210;-59
2023/03/28 04:15:13;;;;;;;0.20;0.20;;;;;;;;;;1751461;28;20290;-58
2023/03/28 04:16:05;;;;;;;0.20;0.20;;;;;;;;;;1747694;28;20230;-58
2023/03/28 04:16:57;;;;;;;0.10;0.10;;;;;;;;;;1752428;28;20247;-59
2023/03/28 04:17:48;;;;;;;0.20;0.20;;;;;;;;;;1747568;28;20327;-58
2023/03/28 04:18:49;;;;;;;0.30;0.30;;;;;;;;;;1746215;28;20712;-58
2023/03/28 04:19:40;;;;;;;0.20;0.20;;;;;;;;;;1746967;28;20605;-60
2023/03/28 04:20:32;;;;;;;0.25;0.25;;;;;;;;;;1748764;28;20238;-58
2023/03/28 04:21:24;;;;;;;0.17;0.17;;;;;;;;;;1750443;28;20206;-59
2023/03/28 04:22:17;;;;;;;0.20;0.20;;;;;;;;;;1752985;28;20632;-58
2023/03/28 04:23:08;;;;;;;0.20;0.20;;;;;;;;;;1756867;28;20197;-58
2023/03/28 04:24:01;;;;;;;0.10;0.10;;;;;;;;;;1744461;28;20252;-58
2023/03/28 04:24:52;;;;;;;0.10;0.10;;;;;;;;;;1751248;28;20213;-57
2023/03/28 04:25:43;;;;;;;0.10;0.10;;;;;;;;;;1744706;28;20711;-58
2023/03/28 04:26:36;;;;;;;0.40;0.40;;;;;;;;;;1750651;28;20213;-58
2023/03/28 04:27:30;;;;;;;0.20;0.20;;;;;;;;;;1747868;28;20207;-59
2023/03/28 04:28:24;;;;;;;0.40;0.40;;;;;;;;;;1750087;28;20206;-58
2023/03/28 04:29:16;;;;;;;0.25;0.25;;;;;;;;;;1753238;28;20206;-58
2023/03/28 04:30:09;;;;;;;0.20;0.20;;;;;;;;;;1749729;28;20279;-58
2023/03/28 04:31:01;;;;;;;0.10;0.10;;;;;;;;;;1744742;28;20287;-58
2023/03/28 04:31:54;;;;;;;0.20;0.20;;;;;;;;;;1742043;28;20656;-57
2023/03/28 04:32:49;;;;;;;0.10;0.10;;;;;;;;;;1745045;28;20210;-57
2023/03/28 04:33:44;;;;;;;0.28;0.28;;;;;;;;;;1748665;28;20212;-58
2023/03/28 04:34:36;;;;;;;0.10;0.10;;;;;;;;;;1747217;28;20238;-58
2023/03/28 04:35:28;;;;;;;0.10;0.10;;;;;;;;;;1748273;28;20620;-57
2023/03/28 04:36:21;;;;;;;0.20;0.20;;;;;;;;;;1751853;28;20206;-57
2023/03/28 04:37:14;;;;;;;0.20;0.20;;;;;;;;;;1749896;28;20210;-58
2023/03/28 04:38:06;;;;;;;0.10;0.10;;;;;;;;;;1748001;28;20198;-57
2023/03/28 04:39:01;;;;;;;0.20;0.20;;;;;;;;;;1746353;28;20209;-58
2023/03/28 04:39:52;;;;;;;0.30;0.30;;;;;;;;;;1746923;28;20210;-58
2023/03/28 04:40:44;;;;;;;0.20;0.20;;;;;;;;;;1749479;28;20232;-58
2023/03/28 04:41:35;;;;;;;0.10;0.10;;;;;;;;;;1746144;28;20229;-58
2023/03/28 04:42:29;;;;;;;0.20;0.20;;;;;;;;;;1750168;28;20238;-58
2023/03/28 04:43:20;;;;;;;0.10;0.10;;;;;;;;;;1750807;28;20214;-59
2023/03/28 04:44:12;;;;;;;0.32;0.32;;;;;;;;;;1749121;28;20301;-59
2023/03/28 04:45:03;;;;;;;0.47;0.47;;;;;;;;;;1751138;28;20710;-58
2023/03/28 04:45:55;;;;;;;0.10;0.10;;;;;;;;;;1744505;28;20292;-59
2023/03/28 04:46:47;;;;;;;0.30;0.30;;;;;;;;;;1751088;28;20229;-60
2023/03/28 04:47:39;;;;;;;0.17;0.17;;;;;;;;;;1747837;28;20206;-59
2023/03/28 04:48:30;;;;;;;0.10;0.10;;;;;;;;;;1745868;28;20206;-59
2023/03/28 04:49:23;;;;;;;0.20;0.20;;;;;;;;;;1750380;28;20205;-59
2023/03/28 04:50:14;;;;;;;0.38;0.38;;;;;;;;;;1747702;28;20262;-59
2023/03/28 04:51:06;;;;;;;0.15;0.15;;;;;;;;;;1746097;28;20252;-59
2023/03/28 04:51:57;;;;;;;0.10;0.10;;;;;;;;;;1747248;28;20207;-59
2023/03/28 04:52:49;;;;;;;0.30;0.30;;;;;;;;;;1753146;28;20201;-62
2023/03/28 04:53:40;;;;;;;0.25;0.25;;;;;;;;;;1752525;28;20221;-59
2023/03/28 04:54:32;;;;;;;0.20;0.20;;;;;;;;;;1747479;28;20211;-59
2023/03/28 04:55:24;;;;;;;0.10;0.10;;;;;;;;;;1744657;28;20384;-58
2023/03/28 04:56:16;;;;;;;0.10;0.10;;;;;;;;;;1747739;28;20206;-57
2023/03/28 04:57:07;;;;;;;0.10;0.10;;;;;;;;;;1745873;28;20211;-58
2023/03/28 04:58:00;;;;;;;0.10;0.10;;;;;;;;;;1747669;28;20691;-58
2023/03/28 04:58:51;;;;;;;0.10;0.10;;;;;;;;;;1746071;28;20211;-57
2023/03/28 04:59:44;;;;;;;0.10;0.10;;;;;;;;;;1746308;28;20206;-58
2023/03/28 05:00:35;;;;;;;0.20;0.20;;;;;;;;;;1745227;28;20234;-58
2023/03/28 05:01:27;;;;;;;0.00;0.00;;;;;;;;;;1750346;28;20229;-58
2023/03/28 05:02:18;;;;;;;0.25;0.25;;;;;;;;;;1750972;28;20403;-58
2023/03/28 05:03:12;;;;;;;0.10;0.10;;;;;;;;;;1748496;28;20732;-58
2023/03/28 05:04:03;;;;;;;0.10;0.10;;;;;;;;;;1747095;28;20238;-58
2023/03/28 05:04:55;;;;;;;0.10;0.10;;;;;;;;;;1746244;28;20218;-58
2023/03/28 05:05:46;;;;;;;0.30;0.30;;;;;;;;;;1742979;28;20231;-59
2023/03/28 05:06:38;;;;;;;0.20;0.20;;;;;;;;;;1746860;28;20313;-58
2023/03/28 05:07:29;;;;;;;0.13;0.13;;;;;;;;;;1747582;28;20622;-58
2023/03/28 05:08:22;;;;;;;0.15;0.15;;;;;;;;;;1745020;28;20685;-57
2023/03/28 05:09:15;;;;;;;0.10;0.10;;;;;;;;;;1750788;28;20711;-58
2023/03/28 05:10:07;;;;;;;0.10;0.10;;;;;;;;;;1751766;28;20202;-58
2023/03/28 05:10:58;;;;;;;0.15;0.15;;;;;;;;;;1748246;28;20353;-57
2023/03/28 05:11:50;;;;;;;0.20;0.20;;;;;;;;;;1749118;28;20634;-58
2023/03/28 05:12:41;;;;;;;0.20;0.20;;;;;;;;;;1746760;28;20269;-59
2023/03/28 05:13:35;;;;;;;0.10;0.10;;;;;;;;;;1745988;28;20210;-59
2023/03/28 05:14:26;;;;;;;0.15;0.15;;;;;;;;;;1751068;28;20274;-58
2023/03/28 05:15:18;;;;;;;0.10;0.10;;;;;;;;;;1749588;28;20206;-59
2023/03/28 05:16:09;;;;;;;0.20;0.20;;;;;;;;;;1752895;28;20247;-59
2023/03/28 05:17:01;;;;;;;0.25;0.25;;;;;;;;;;1745418;28;20195;-60
2023/03/28 05:17:52;;;;;;;0.10;0.10;;;;;;;;;;1747905;28;20206;-58
2023/03/28 05:18:44;;;;;;;0.15;0.15;;;;;;;;;;1747919;28;20259;-58
2023/03/28 05:19:35;;;;;;;0.10;0.10;;;;;;;;;;1752042;28;20210;-58
2023/03/28 05:20:28;;;;;;;0.10;0.10;;;;;;;;;;1745185;28;20194;-58
2023/03/28 05:21:19;;;;;;;0.10;0.10;;;;;;;;;;1745766;28;20636;-58
2023/03/28 05:22:11;;;;;;;0.10;0.10;;;;;;;;;;1745553;28;20226;-58